Time;durP1;ratioP1;P1;durP2;ratioP2;P2;SDS_P1;SDS_P2;PMS_P1;PMS_P2;Temp;Humidity;BMP_temperature;BMP_pressure;BME280_temperature;BME280_humidity;BME280_pressure;Samples;Min_cycle;Max_cycle;Signal;HPM_P1;HPM_P2
2021/07/25 00:00:11;;;;;;;4.25;3.42;;;18.90;92.30;;;;;;5010316;28;20057;-71
2021/07/25 00:02:37;;;;;;;7.22;3.67;;;18.90;92.30;;;;;;5012088;28;20119;-71
2021/07/25 00:05:08;;;;;;;5.80;3.33;;;18.90;92.30;;;;;;5009730;28;20030;-71
2021/07/25 00:07:34;;;;;;;9.15;4.18;;;18.80;92.40;;;;;;5010397;28;20029;-71
2021/07/25 00:10:02;;;;;;;8.45;3.63;;;18.80;92.40;;;;;;5008983;28;20034;-71
2021/07/25 00:12:28;;;;;;;6.90;4.07;;;18.80;92.50;;;;;;5010501;28;20121;-71
2021/07/25 00:14:53;;;;;;;7.65;3.88;;;18.80;92.50;;;;;;5010417;28;20129;-72
2021/07/25 00:17:19;;;;;;;7.13;3.53;;;18.80;92.60;;;;;;5011512;28;20025;-71
2021/07/25 00:19:44;;;;;;;5.32;3.70;;;18.80;92.60;;;;;;5011167;28;20494;-71
2021/07/25 00:22:10;;;;;;;4.10;3.65;;;18.90;92.60;;;;;;5011753;28;20026;-71
2021/07/25 00:24:37;;;;;;;5.82;3.50;;;18.80;92.50;;;;;;5009867;28;20034;-72
2021/07/25 00:27:04;;;;;;;5.50;4.00;;;18.80;92.60;;;;;;5010085;28;20034;-71
2021/07/25 00:29:31;;;;;;;6.45;3.72;;;18.90;92.70;;;;;;5011504;28;20046;-71
2021/07/25 00:32:04;;;;;;;6.55;4.07;;;18.90;92.70;;;;;;5011327;28;20033;-72
2021/07/25 00:34:32;;;;;;;5.53;4.35;;;18.80;92.70;;;;;;5010746;28;20523;-71
2021/07/25 00:36:58;;;;;;;4.45;3.88;;;18.80;92.60;;;;;;5010185;28;20078;-71
2021/07/25 00:39:24;;;;;;;7.70;4.75;;;18.80;92.50;;;;;;5010087;28;20050;-71
2021/07/25 00:41:50;;;;;;;10.25;5.32;;;18.70;92.50;;;;;;5011257;28;20032;-71
2021/07/25 00:44:16;;;;;;;10.38;5.80;;;18.70;92.50;;;;;;5004209;28;20390;-71
2021/07/25 00:46:45;;;;;;;11.88;5.47;;;18.70;92.50;;;;;;5010250;28;20088;-71
2021/07/25 00:49:12;;;;;;;7.47;6.15;;;18.60;92.60;;;;;;5011357;28;20386;-71
2021/07/25 00:51:38;;;;;;;12.40;6.25;;;18.60;92.60;;;;;;5010699;28;20041;-71
2021/07/25 00:54:04;;;;;;;11.60;5.75;;;18.50;92.60;;;;;;5017986;28;20026;-71
2021/07/25 00:56:30;;;;;;;8.68;6.20;;;18.50;92.70;;;;;;5005517;28;20502;-71
2021/07/25 00:58:55;;;;;;;10.13;7.03;;;18.50;92.70;;;;;;5010724;28;20018;-71
2021/07/25 01:01:22;;;;;;;10.75;6.93;;;18.50;92.70;;;;;;5010731;28;20026;-71
2021/07/25 01:03:50;;;;;;;13.30;7.43;;;18.50;92.70;;;;;;5004181;28;20030;-71
2021/07/25 01:06:43;;;;;;;11.20;7.68;;;18.50;92.70;;;;;;5009201;28;20058;-71
2021/07/25 01:09:17;;;;;;;10.98;7.68;;;18.50;92.90;;;;;;5010777;28;20064;-71
2021/07/25 01:11:55;;;;;;;11.93;7.75;;;18.50;92.70;;;;;;5010656;28;20118;-71
2021/07/25 01:14:28;;;;;;;12.57;8.95;;;18.40;92.90;;;;;;5010974;28;20026;-71
2021/07/25 01:17:22;;;;;;;12.55;8.75;;;18.50;93.00;;;;;;5004925;28;20026;-71
2021/07/25 01:19:51;;;;;;;14.45;8.38;;;18.50;93.10;;;;;;5007209;28;20026;-71
2021/07/25 01:22:17;;;;;;;10.60;7.97;;;18.50;92.90;;;;;;5010698;28;20065;-71
2021/07/25 01:24:43;;;;;;;13.60;7.28;;;18.50;92.90;;;;;;5020864;28;20107;-71
2021/07/25 01:27:16;;;;;;;14.35;9.38;;;18.50;92.90;;;;;;5015861;28;20034;-71
2021/07/25 01:29:43;;;;;;;11.80;7.78;;;18.50;93.00;;;;;;4996698;28;20026;-71
2021/07/25 01:32:09;;;;;;;11.15;8.20;;;18.50;93.00;;;;;;5010159;28;20034;-71
2021/07/25 01:34:36;;;;;;;13.43;7.82;;;18.50;93.10;;;;;;5009977;28;20054;-71
2021/07/25 01:37:03;;;;;;;12.13;8.55;;;18.50;93.10;;;;;;5009286;28;20538;-71
2021/07/25 01:39:29;;;;;;;19.60;8.57;;;18.50;93.10;;;;;;5008497;28;20030;-71
2021/07/25 01:41:54;;;;;;;16.00;8.70;;;18.50;93.10;;;;;;5010655;28;20062;-72
2021/07/25 01:44:20;;;;;;;18.63;9.15;;;18.50;93.10;;;;;;5008939;28;20437;-72
2021/07/25 01:46:46;;;;;;;15.90;8.80;;;18.50;93.10;;;;;;5009496;28;20088;-71
2021/07/25 01:49:11;;;;;;;13.85;8.38;;;18.50;93.10;;;;;;5009769;28;20033;-72
2021/07/25 01:51:37;;;;;;;14.75;7.78;;;18.60;93.20;;;;;;5011447;28;20060;-71
2021/07/25 01:54:03;;;;;;;12.32;7.97;;;18.60;93.20;;;;;;5008285;28;20050;-72
2021/07/25 01:56:29;;;;;;;12.45;7.70;;;18.60;93.20;;;;;;5010495;28;20456;-71
2021/07/25 01:58:56;;;;;;;14.48;7.72;;;18.60;93.10;;;;;;5014188;28;20098;-71
2021/07/25 02:01:23;;;;;;;12.43;7.72;;;18.60;93.20;;;;;;5013949;28;20409;-72
2021/07/25 02:03:48;;;;;;;10.43;7.10;;;18.60;93.20;;;;;;5014169;28;20037;-72
2021/07/25 02:06:14;;;;;;;12.48;7.72;;;18.60;93.20;;;;;;5011580;28;20022;-71
2021/07/25 02:08:39;;;;;;;9.65;7.90;;;18.60;93.20;;;;;;5013878;28;20061;-71
2021/07/25 02:11:08;;;;;;;15.35;8.18;;;18.60;93.20;;;;;;5013544;28;20030;-72
2021/07/25 02:13:34;;;;;;;13.60;7.28;;;18.60;93.30;;;;;;5057869;23;20051;-70
2021/07/25 02:16:00;;;;;;;10.82;7.22;;;18.70;93.40;;;;;;4956894;28;20119;-66
2021/07/25 02:18:26;;;;;;;12.13;7.90;;;18.70;93.30;;;;;;4945622;28;20065;-65
2021/07/25 02:20:52;;;;;;;16.98;7.95;;;18.70;93.30;;;;;;4955186;28;20023;-65
2021/07/25 02:23:17;;;;;;;14.90;8.48;;;18.70;93.30;;;;;;4943241;28;20042;-65
2021/07/25 02:25:43;;;;;;;16.23;7.63;;;18.60;93.30;;;;;;4942103;28;20114;-67
2021/07/25 02:28:09;;;;;;;12.98;7.30;;;18.60;93.20;;;;;;4954795;28;20042;-70
2021/07/25 02:30:35;;;;;;;9.52;7.38;;;18.60;93.30;;;;;;4954903;28;20035;-68
2021/07/25 02:33:01;;;;;;;16.58;7.93;;;18.60;93.30;;;;;;4954588;29;20042;-70
2021/07/25 02:35:26;;;;;;;12.35;7.57;;;18.60;93.40;;;;;;4953557;28;20027;-66
2021/07/25 02:37:52;;;;;;;9.85;7.15;;;18.60;93.40;;;;;;4964664;28;20163;-66
2021/07/25 02:40:17;;;;;;;12.00;7.10;;;18.60;93.40;;;;;;4954878;29;20027;-66
2021/07/25 02:42:43;;;;;;;14.10;7.90;;;18.60;93.40;;;;;;4954611;29;20106;-67
2021/07/25 02:45:09;;;;;;;10.73;6.93;;;18.60;93.40;;;;;;4952950;28;20035;-70
2021/07/25 02:47:35;;;;;;;11.80;7.72;;;18.70;93.50;;;;;;4953614;28;20114;-67
2021/07/25 02:50:01;;;;;;;17.15;8.23;;;18.70;93.40;;;;;;4954074;28;20063;-66
2021/07/25 02:52:26;;;;;;;10.35;6.80;;;18.70;93.40;;;;;;4954116;29;20034;-65
2021/07/25 02:54:52;;;;;;;15.88;7.80;;;18.70;93.50;;;;;;4949990;28;20035;-66
2021/07/25 02:57:17;;;;;;;13.93;7.93;;;18.60;93.30;;;;;;4967696;28;20479;-67
2021/07/25 02:59:43;;;;;;;13.82;6.82;;;18.50;93.20;;;;;;4954685;28;20101;-65
2021/07/25 03:02:10;;;;;;;14.07;6.70;;;18.50;93.30;;;;;;4951714;28;20031;-65
2021/07/25 03:04:36;;;;;;;15.52;7.82;;;18.40;93.50;;;;;;4953789;28;20106;-65
2021/07/25 03:07:02;;;;;;;16.15;7.63;;;18.50;93.50;;;;;;4954256;29;20110;-69
2021/07/25 03:09:27;;;;;;;10.93;7.40;;;18.50;93.60;;;;;;4954625;29;20027;-65
2021/07/25 03:11:53;;;;;;;11.00;6.93;;;18.50;93.60;;;;;;4954174;29;20114;-65
2021/07/25 03:14:18;;;;;;;10.00;6.88;;;18.50;93.60;;;;;;4953999;28;20048;-65
2021/07/25 03:16:45;;;;;;;15.55;7.10;;;18.50;93.70;;;;;;4940115;28;20028;-67
2021/07/25 03:19:11;;;;;;;11.30;7.20;;;18.50;93.70;;;;;;4946316;29;20046;-65
2021/07/25 03:21:37;;;;;;;8.57;7.05;;;18.50;93.70;;;;;;4953991;29;20077;-66
2021/07/25 03:24:02;;;;;;;18.17;7.78;;;18.50;93.70;;;;;;4956325;28;20046;-66
2021/07/25 03:26:28;;;;;;;11.25;7.70;;;18.50;93.60;;;;;;4960247;28;20035;-68
2021/07/25 03:28:53;;;;;;;17.20;7.55;;;18.50;93.60;;;;;;4967204;28;20030;-69
2021/07/25 03:31:19;;;;;;;13.65;7.72;;;18.50;93.60;;;;;;4960958;28;20483;-65
2021/07/25 03:33:45;;;;;;;15.13;8.40;;;18.50;93.60;;;;;;4950123;28;20039;-69
2021/07/25 03:36:11;;;;;;;17.35;8.30;;;18.50;93.60;;;;;;4952167;28;20108;-68
2021/07/25 03:38:36;;;;;;;14.90;7.50;;;18.40;93.90;;;;;;4958863;28;20483;-68
2021/07/25 03:41:02;;;;;;;22.92;8.25;;;18.40;93.70;;;;;;4964728;28;20373;-65
2021/07/25 03:43:30;;;;;;;12.82;7.38;;;18.40;93.70;;;;;;4953124;28;20102;-65
2021/07/25 03:45:56;;;;;;;12.43;7.38;;;18.40;93.70;;;;;;4952593;28;20050;-66
2021/07/25 03:48:22;;;;;;;17.35;8.40;;;18.40;93.70;;;;;;4956826;28;20054;-66
2021/07/25 03:50:48;;;;;;;16.00;7.80;;;18.40;93.70;;;;;;4953433;29;20430;-66
2021/07/25 03:53:14;;;;;;;14.80;7.65;;;18.40;93.80;;;;;;4953508;29;20073;-66
2021/07/25 03:55:44;;;;;;;14.07;7.63;;;18.40;93.80;;;;;;4951754;29;20016;-66
2021/07/25 03:58:10;;;;;;;21.33;7.32;;;18.40;93.90;;;;;;4956384;28;20475;-67
2021/07/25 04:00:35;;;;;;;17.70;7.18;;;18.40;93.90;;;;;;4970243;28;20034;-66
2021/07/25 04:03:01;;;;;;;18.50;8.35;;;18.50;93.90;;;;;;4952968;28;20078;-69
2021/07/25 04:05:26;;;;;;;15.43;8.55;;;18.50;93.90;;;;;;4951982;28;20027;-67
2021/07/25 04:07:52;;;;;;;15.13;8.05;;;18.50;93.90;;;;;;4952802;28;20511;-66
2021/07/25 04:10:18;;;;;;;14.65;8.18;;;18.50;94.20;;;;;;4966417;28;20534;-66
2021/07/25 04:12:44;;;;;;;18.13;8.50;;;18.50;94.00;;;;;;4952542;28;20031;-67
2021/07/25 04:15:10;;;;;;;14.35;8.32;;;18.50;94.00;;;;;;4950472;28;20106;-68
2021/07/25 04:17:36;;;;;;;11.35;7.38;;;18.50;94.00;;;;;;4952723;28;20034;-67
2021/07/25 04:20:03;;;;;;;16.85;8.02;;;18.50;94.00;;;;;;4952887;28;20031;-70
2021/07/25 04:22:36;;;;;;;18.48;8.05;;;18.50;94.00;;;;;;4952966;28;20054;-67
2021/07/25 04:25:04;;;;;;;25.48;8.30;;;18.50;94.20;;;;;;4950432;28;20031;-67
2021/07/25 04:27:29;;;;;;;16.90;7.70;;;18.60;94.10;;;;;;4952354;29;20023;-66
2021/07/25 04:29:56;;;;;;;20.98;7.20;;;18.50;94.00;;;;;;4954000;28;20027;-66
2021/07/25 04:32:23;;;;;;;21.27;7.72;;;18.50;94.00;;;;;;4951007;28;20034;-66
2021/07/25 04:34:49;;;;;;;20.98;8.45;;;18.50;94.10;;;;;;4950303;29;20030;-66
2021/07/25 04:37:26;;;;;;;21.33;8.30;;;18.50;94.10;;;;;;4952470;28;20027;-66
2021/07/25 04:39:52;;;;;;;22.45;8.15;;;18.50;94.00;;;;;;4951309;29;20043;-66
2021/07/25 04:42:21;;;;;;;18.05;7.55;;;18.50;94.10;;;;;;4956098;28;20032;-65
2021/07/25 04:45:04;;;;;;;17.80;7.75;;;18.40;93.90;;;;;;4954121;28;20130;-68
2021/07/25 04:47:35;;;;;;;15.60;7.63;;;18.40;94.00;;;;;;4950875;28;20031;-66
2021/07/25 04:50:04;;;;;;;15.48;7.93;;;18.30;93.90;;;;;;4951477;28;20031;-66
2021/07/25 04:52:37;;;;;;;15.63;7.57;;;18.30;94.00;;;;;;4952344;29;20035;-67
2021/07/25 04:55:06;;;;;;;17.02;7.05;;;18.30;94.10;;;;;;4950782;28;20035;-66
2021/07/25 04:57:40;;;;;;;10.57;6.63;;;18.30;94.10;;;;;;4952004;28;20046;-66
2021/07/25 05:00:07;;;;;;;15.10;7.72;;;18.30;94.20;;;;;;4950353;29;20037;-66
2021/07/25 05:02:36;;;;;;;17.65;8.57;;;18.40;94.10;;;;;;4951935;29;20075;-66
2021/07/25 05:05:02;;;;;;;17.45;7.95;;;18.40;94.10;;;;;;4951648;28;20028;-67
2021/07/25 05:07:34;;;;;;;16.88;8.27;;;18.50;94.10;;;;;;4954592;28;20487;-65
2021/07/25 05:10:00;;;;;;;17.27;8.93;;;18.40;94.10;;;;;;4933700;29;20095;-65
2021/07/25 05:12:51;;;;;;;17.05;8.80;;;18.40;94.00;;;;;;4948918;29;20043;-65
2021/07/25 05:15:29;;;;;;;15.38;9.20;;;18.40;94.10;;;;;;4940973;28;20085;-67
2021/07/25 05:18:07;;;;;;;15.68;8.45;;;18.40;94.00;;;;;;4940162;28;20340;-70
2021/07/25 05:20:47;;;;;;;13.50;9.18;;;18.40;94.00;;;;;;4952716;28;20019;-65
2021/07/25 05:23:32;;;;;;;12.95;7.95;;;18.40;94.10;;;;;;4951369;29;20035;-65
2021/07/25 05:25:59;;;;;;;15.20;9.35;;;18.30;94.00;;;;;;4951996;28;20020;-66
2021/07/25 05:28:27;;;;;;;17.20;9.20;;;18.30;93.90;;;;;;4956468;28;20050;-65
2021/07/25 05:30:55;;;;;;;14.68;9.02;;;18.30;93.90;;;;;;4956090;28;20106;-65
2021/07/25 05:33:22;;;;;;;18.10;9.30;;;18.20;93.90;;;;;;4955912;28;20110;-65
2021/07/25 05:35:49;;;;;;;13.73;9.77;;;18.20;94.00;;;;;;4954710;28;20015;-65
2021/07/25 05:38:16;;;;;;;14.57;9.50;;;18.20;94.00;;;;;;4955801;28;20046;-65
2021/07/25 05:40:42;;;;;;;16.77;10.30;;;18.20;94.10;;;;;;4956582;28;20028;-66
2021/07/25 05:43:08;;;;;;;16.67;10.00;;;18.20;94.20;;;;;;4960809;28;20037;-68
2021/07/25 05:45:33;;;;;;;17.23;9.75;;;18.20;94.20;;;;;;4954070;28;20074;-66
2021/07/25 05:47:59;;;;;;;14.05;9.13;;;18.20;94.20;;;;;;4955909;28;20106;-65
2021/07/25 05:50:25;;;;;;;16.30;9.20;;;18.20;94.20;;;;;;4954359;29;20031;-66
2021/07/25 05:52:53;;;;;;;13.05;8.65;;;18.20;94.30;;;;;;4954147;28;20515;-67
2021/07/25 05:55:21;;;;;;;17.00;10.88;;;18.30;94.40;;;;;;4951428;28;20456;-66
2021/07/25 05:57:47;;;;;;;14.48;9.32;;;18.30;94.40;;;;;;4955142;28;20027;-65
2021/07/25 06:00:13;;;;;;;13.95;9.50;;;18.40;94.50;;;;;;4963594;28;20027;-65
2021/07/25 06:02:58;;;;;;;17.80;10.05;;;18.40;94.50;;;;;;4954768;28;20114;-67
2021/07/25 06:05:25;;;;;;;16.85;9.55;;;18.50;94.60;;;;;;4951645;29;20027;-65
2021/07/25 06:07:52;;;;;;;14.38;10.18;;;18.50;94.40;;;;;;4954860;29;20037;-66
2021/07/25 06:10:19;;;;;;;19.67;10.35;;;18.50;94.40;;;;;;4954092;28;20039;-65
2021/07/25 06:12:44;;;;;;;18.17;9.82;;;18.60;94.40;;;;;;4958928;28;20380;-68
2021/07/25 06:15:11;;;;;;;17.08;9.98;;;18.60;94.40;;;;;;4953160;28;20090;-67
2021/07/25 06:17:37;;;;;;;18.23;10.50;;;18.60;94.40;;;;;;4936418;29;20023;-67
2021/07/25 06:20:04;;;;;;;15.20;10.43;;;18.60;94.40;;;;;;4953633;29;20030;-68
2021/07/25 06:22:40;;;;;;;16.45;11.55;;;18.60;94.40;;;;;;4954412;28;20395;-66
2021/07/25 06:25:07;;;;;;;17.95;11.57;;;18.60;94.50;;;;;;4954083;28;20548;-66
2021/07/25 06:27:33;;;;;;;14.52;10.55;;;18.70;94.50;;;;;;4954715;29;20731;-70
2021/07/25 06:29:58;;;;;;;21.85;12.07;;;18.70;94.40;;;;;;4952730;28;20023;-66
2021/07/25 06:32:24;;;;;;;17.52;11.77;;;18.80;94.60;;;;;;4955170;28;20122;-66
2021/07/25 06:34:49;;;;;;;18.17;12.13;;;18.90;94.60;;;;;;4953053;28;20106;-66
2021/07/25 06:37:15;;;;;;;16.30;11.20;;;19.00;94.50;;;;;;4944876;28;20050;-69
2021/07/25 06:39:40;;;;;;;14.77;10.65;;;19.00;94.50;;;;;;4946161;29;20034;-66
2021/07/25 06:42:08;;;;;;;15.20;10.23;;;19.10;94.50;;;;;;4955050;29;20089;-66
2021/07/25 06:44:34;;;;;;;14.95;10.18;;;19.10;94.50;;;;;;4953442;28;20507;-69
2021/07/25 06:46:59;;;;;;;13.65;9.32;;;19.20;94.50;;;;;;4953506;28;20035;-66
2021/07/25 06:49:25;;;;;;;15.85;10.15;;;19.20;94.50;;;;;;4952856;28;20044;-70
2021/07/25 06:51:51;;;;;;;14.43;10.60;;;19.20;94.50;;;;;;4953014;28;20117;-66
2021/07/25 06:54:16;;;;;;;14.70;9.80;;;19.30;94.60;;;;;;4953937;29;20034;-65
2021/07/25 06:56:42;;;;;;;14.30;9.95;;;19.30;94.40;;;;;;4950978;28;20030;-66
2021/07/25 06:59:07;;;;;;;12.60;9.00;;;19.40;94.40;;;;;;4953975;28;20470;-70
2021/07/25 07:01:33;;;;;;;12.27;9.43;;;19.40;94.30;;;;;;4954343;28;20031;-65
2021/07/25 07:03:59;;;;;;;15.48;10.38;;;19.50;94.30;;;;;;4950531;28;20126;-67
2021/07/25 07:06:24;;;;;;;13.63;10.25;;;19.60;94.20;;;;;;4951875;28;20066;-67
2021/07/25 07:08:50;;;;;;;14.93;9.60;;;19.70;94.20;;;;;;4954607;29;20050;-70
2021/07/25 07:11:16;;;;;;;12.88;9.30;;;19.70;94.00;;;;;;4954342;28;20496;-66
2021/07/25 07:13:42;;;;;;;13.43;9.52;;;19.80;94.00;;;;;;4956779;28;20038;-66
2021/07/25 07:16:07;;;;;;;13.00;9.30;;;19.90;94.00;;;;;;4955055;28;20022;-66
2021/07/25 07:18:33;;;;;;;14.15;8.52;;;20.00;93.90;;;;;;4954204;29;20103;-67
2021/07/25 07:20:58;;;;;;;10.98;8.73;;;20.20;93.90;;;;;;4954324;28;20082;-68
2021/07/25 07:23:25;;;;;;;13.77;8.57;;;20.40;93.70;;;;;;4952546;29;20496;-67
2021/07/25 07:25:53;;;;;;;12.85;8.52;;;20.50;93.60;;;;;;4951578;28;20385;-67
2021/07/25 07:28:20;;;;;;;9.63;7.55;;;20.60;93.40;;;;;;4951917;28;20042;-67
2021/07/25 07:30:47;;;;;;;9.40;7.63;;;20.80;93.30;;;;;;4949427;28;20034;-69
2021/07/25 07:33:21;;;;;;;11.30;7.80;;;20.80;93.20;;;;;;4953107;28;20024;-68
2021/07/25 07:35:46;;;;;;;10.80;7.70;;;20.90;93.10;;;;;;4952046;28;20031;-68
2021/07/25 07:38:13;;;;;;;9.98;6.57;;;21.10;92.90;;;;;;4951069;29;20093;-68
2021/07/25 07:40:40;;;;;;;12.40;6.82;;;21.10;92.70;;;;;;4951612;28;20035;-68
2021/07/25 07:43:08;;;;;;;9.20;6.50;;;21.20;92.70;;;;;;4952010;28;20066;-68
2021/07/25 07:45:35;;;;;;;10.20;6.72;;;21.30;92.60;;;;;;4950796;28;20468;-68
2021/07/25 07:48:00;;;;;;;8.40;6.47;;;21.50;92.20;;;;;;4955535;28;20085;-68
2021/07/25 07:50:26;;;;;;;9.38;6.50;;;21.50;92.30;;;;;;4953580;28;20117;-69
2021/07/25 07:52:52;;;;;;;8.93;6.63;;;21.50;92.20;;;;;;4953460;29;20038;-68
2021/07/25 07:55:18;;;;;;;8.85;6.18;;;21.50;92.00;;;;;;4952010;28;20024;-68
2021/07/25 07:57:44;;;;;;;7.53;5.43;;;21.80;91.90;;;;;;4952476;29;20127;-68
2021/07/25 08:00:11;;;;;;;7.72;6.35;;;22.00;91.60;;;;;;4951190;28;20059;-68
2021/07/25 08:02:36;;;;;;;7.57;5.53;;;22.10;91.50;;;;;;4952231;29;20035;-68
2021/07/25 08:05:03;;;;;;;6.88;5.88;;;22.60;91.10;;;;;;4952179;28;20115;-68
2021/07/25 08:07:29;;;;;;;7.50;5.47;;;22.80;90.70;;;;;;4953647;28;20031;-68
2021/07/25 08:09:54;;;;;;;10.13;5.95;;;23.00;90.40;;;;;;4953012;29;20039;-68
2021/07/25 08:12:20;;;;;;;6.97;5.47;;;22.90;90.50;;;;;;4952991;28;20861;-68
2021/07/25 08:14:46;;;;;;;6.72;5.45;;;23.00;90.50;;;;;;5041726;23;20129;-75
2021/07/25 08:17:12;;;;;;;9.68;5.32;;;22.90;90.60;;;;;;4961292;28;20537;-75
2021/07/25 08:19:37;;;;;;;6.85;5.47;;;22.90;90.70;;;;;;4981025;28;20105;-74
2021/07/25 08:22:05;;;;;;;7.80;4.95;;;22.80;90.70;;;;;;4992025;28;20130;-74
2021/07/25 08:24:30;;;;;;;7.20;4.80;;;22.70;90.80;;;;;;4991520;28;20032;-74
2021/07/25 08:26:56;;;;;;;7.45;4.85;;;22.70;90.80;;;;;;4991275;28;20034;-75
2021/07/25 08:29:21;;;;;;;8.63;4.57;;;22.60;90.80;;;;;;4969632;28;20552;-73
2021/07/25 08:31:47;;;;;;;8.25;5.03;;;22.60;90.70;;;;;;5008307;28;20026;-74
2021/07/25 08:34:12;;;;;;;5.53;4.68;;;22.50;90.70;;;;;;4991583;28;20064;-73
2021/07/25 08:36:38;;;;;;;5.13;4.50;;;22.50;90.70;;;;;;4972330;28;20037;-73
2021/07/25 08:39:04;;;;;;;5.22;4.40;;;22.50;90.60;;;;;;4991472;28;20041;-74
2021/07/25 08:42:02;;;;;;;5.65;4.47;;;22.60;90.50;;;;;;4973908;28;21410;-74
2021/07/25 08:44:45;;;;;;;5.28;4.15;;;22.60;90.40;;;;;;4981324;28;20077;-76
2021/07/25 08:47:25;;;;;;;6.30;4.75;;;22.60;90.40;;;;;;4984746;28;20052;-73
2021/07/25 08:49:51;;;;;;;7.05;4.18;;;23.10;90.00;;;;;;4990725;28;20026;-74
2021/07/25 08:52:19;;;;;;;4.68;3.67;;;23.60;88.90;;;;;;4991637;28;20034;-75
2021/07/25 08:54:45;;;;;;;4.88;3.65;;;24.40;87.50;;;;;;4987414;28;20077;-74
2021/07/25 08:57:17;;;;;;;5.88;4.43;;;24.60;86.70;;;;;;4990890;28;20074;-77
2021/07/25 08:59:45;;;;;;;6.90;4.00;;;25.00;85.70;;;;;;4988309;28;20023;-73
2021/07/25 09:02:20;;;;;;;4.68;3.55;;;25.50;84.00;;;;;;4991540;28;20076;-74
2021/07/25 09:04:47;;;;;;;3.75;3.20;;;26.30;81.50;;;;;;4972582;28;20078;-74
2021/07/25 09:07:13;;;;;;;4.53;3.50;;;26.80;80.60;;;;;;4991169;28;20053;-74
2021/07/25 09:09:41;;;;;;;5.68;3.75;;;27.50;79.30;;;;;;4972029;28;20061;-73
2021/07/25 09:12:08;;;;;;;6.25;3.75;;;27.80;78.10;;;;;;4986245;28;20049;-77
2021/07/25 09:14:33;;;;;;;5.10;3.90;;;28.60;76.60;;;;;;4990320;28;20141;-74
2021/07/25 09:16:59;;;;;;;4.30;3.50;;;28.90;74.60;;;;;;4992189;28;20506;-74
2021/07/25 09:19:25;;;;;;;5.00;3.65;;;28.20;74.60;;;;;;4991868;28;20106;-74
2021/07/25 09:21:51;;;;;;;4.60;3.70;;;27.30;75.50;;;;;;4990883;28;20163;-74
2021/07/25 09:24:26;;;;;;;4.70;4.05;;;26.50;76.50;;;;;;4990863;28;20023;-73
2021/07/25 09:27:04;;;;;;;6.43;3.70;;;25.80;77.10;;;;;;4970501;28;20033;-73
2021/07/25 09:29:34;;;;;;;4.68;3.67;;;25.10;77.90;;;;;;4990849;28;20030;-68
2021/07/25 09:32:16;;;;;;;5.15;3.60;;;24.70;79.20;;;;;;4989431;28;20031;-68
2021/07/25 09:34:42;;;;;;;;;;;24.20;79.40;;;;;;4991053;28;20027;-69
2021/07/25 09:37:08;;;;;;;8.68;4.50;;;23.90;80.60;;;;;;4988697;28;19909;-69
2021/07/25 09:39:38;;;;;;;7.47;4.28;;;23.70;81.50;;;;;;4991422;28;20529;-69
2021/07/25 09:42:05;;;;;;;5.70;4.00;;;23.70;82.40;;;;;;4990343;28;20037;-69
2021/07/25 09:44:50;;;;;;;4.78;3.60;;;23.90;82.30;;;;;;4982640;28;20486;-69
2021/07/25 09:47:28;;;;;;;7.80;3.95;;;24.30;81.60;;;;;;4986887;28;20030;-69
2021/07/25 09:49:55;;;;;;;6.63;4.43;;;24.50;81.30;;;;;;4989008;28;20026;-69
2021/07/25 09:52:34;;;;;;;5.97;4.22;;;24.60;81.80;;;;;;4990708;28;20422;-69
2021/07/25 09:55:01;;;;;;;4.50;3.65;;;25.10;81.30;;;;;;4988824;28;20041;-69
2021/07/25 09:57:28;;;;;;;5.32;4.30;;;25.40;81.10;;;;;;4986935;28;20081;-69
2021/07/25 09:59:55;;;;;;;6.20;4.07;;;25.30;81.00;;;;;;4990193;28;20022;-68
2021/07/25 10:02:34;;;;;;;6.55;3.70;;;25.20;81.00;;;;;;4989997;28;20037;-72
2021/07/25 10:05:06;;;;;;;21.05;14.27;;;25.00;81.00;;;;;;4988506;28;20033;-73
2021/07/25 10:07:32;;;;;;;;;;;24.90;80.80;;;;;;4990380;28;20102;-72
2021/07/25 10:10:02;;;;;;;6.28;4.38;;;24.70;81.20;;;;;;4972996;28;19992;-72
2021/07/25 10:12:30;;;;;;;6.95;4.32;;;24.60;81.50;;;;;;4983962;28;20027;-72
2021/07/25 10:15:01;;;;;;;6.45;4.40;;;24.40;81.90;;;;;;4981115;28;20027;-74
2021/07/25 10:17:29;;;;;;;7.68;4.40;;;24.30;81.80;;;;;;4990259;28;20050;-72
2021/07/25 10:19:54;;;;;;;5.28;4.57;;;24.20;81.60;;;;;;4994000;28;20057;-72
2021/07/25 10:22:22;;;;;;;5.50;4.28;;;24.20;82.50;;;;;;4994092;28;20049;-72
2021/07/25 10:24:53;;;;;;;7.53;4.32;;;24.10;82.40;;;;;;4992743;28;20030;-72
2021/07/25 10:27:19;;;;;;;6.93;4.57;;;24.00;82.70;;;;;;4993639;28;20022;-72
2021/07/25 10:29:47;;;;;;;5.88;4.45;;;23.90;83.10;;;;;;4976019;28;20026;-72
2021/07/25 10:32:17;;;;;;;6.72;5.18;;;23.80;83.10;;;;;;4994027;28;20022;-72
2021/07/25 10:34:44;;;;;;;7.13;4.60;;;23.70;83.20;;;;;;4974922;28;20026;-72
2021/07/25 10:37:10;;;;;;;9.13;4.70;;;23.50;83.40;;;;;;4993722;28;20113;-72
2021/07/25 10:39:37;;;;;;;5.10;4.43;;;23.40;84.00;;;;;;4994063;28;20030;-72
2021/07/25 10:42:04;;;;;;;7.60;4.72;;;23.30;84.20;;;;;;4976149;28;20084;-72
2021/07/25 10:44:30;;;;;;;4.93;4.43;;;23.20;84.70;;;;;;4992823;28;20042;-72
2021/07/25 10:47:32;;;;;;;7.88;4.72;;;23.20;85.20;;;;;;4988767;28;20105;-72
2021/07/25 10:49:58;;;;;;;5.55;4.75;;;23.20;85.00;;;;;;4993605;28;20010;-72
2021/07/25 10:52:24;;;;;;;5.43;4.05;;;23.20;84.70;;;;;;4993222;28;20030;-72
2021/07/25 10:54:49;;;;;;;5.68;5.13;;;23.20;85.10;;;;;;4992745;28;20030;-72
2021/07/25 10:57:17;;;;;;;7.82;4.68;;;23.20;85.30;;;;;;4983124;28;20057;-72
2021/07/25 10:59:50;;;;;;;6.43;4.88;;;23.20;85.40;;;;;;4993792;28;20102;-72
2021/07/25 11:02:22;;;;;;;8.30;4.60;;;23.30;85.50;;;;;;4993605;28;20062;-72
2021/07/25 11:04:53;;;;;;;5.50;4.53;;;23.30;85.60;;;;;;4992502;28;20319;-72
2021/07/25 11:07:24;;;;;;;7.20;4.70;;;23.30;85.70;;;;;;4992879;28;20034;-72
2021/07/25 11:10:11;;;;;;;9.48;4.93;;;23.40;85.90;;;;;;4992651;28;20027;-72
2021/07/25 11:12:52;;;;;;;7.82;4.82;;;23.50;86.30;;;;;;4992625;28;20397;-72
2021/07/25 11:15:33;;;;;;;6.50;4.72;;;23.60;86.00;;;;;;4994077;28;20022;-72
2021/07/25 11:18:05;;;;;;;6.72;4.57;;;23.60;85.90;;;;;;4994559;28;20105;-72
2021/07/25 11:20:36;;;;;;;4.95;4.13;;;23.70;86.10;;;;;;4989341;28;20052;-72
2021/07/25 11:23:09;;;;;;;7.47;5.20;;;24.00;86.80;;;;;;4991025;28;20030;-73
2021/07/25 11:25:36;;;;;;;7.15;4.80;;;24.20;86.00;;;;;;4989459;28;20022;-73
2021/07/25 11:28:07;;;;;;;6.55;4.50;;;24.40;85.00;;;;;;4991533;28;20049;-73
2021/07/25 11:30:51;;;;;;;7.70;4.75;;;24.50;84.80;;;;;;4993029;28;20030;-72
2021/07/25 11:33:38;;;;;;;5.10;4.55;;;24.60;84.80;;;;;;4992154;28;20037;-72
2021/07/25 11:36:05;;;;;;;10.60;4.10;;;24.80;84.70;;;;;;4990818;28;20098;-72
2021/07/25 11:38:33;;;;;;;4.53;3.92;;;25.00;84.30;;;;;;4991893;28;20094;-72
2021/07/25 11:40:58;;;;;;;4.78;3.85;;;25.10;82.90;;;;;;4974352;28;20509;-73
2021/07/25 11:43:24;;;;;;;8.35;3.90;;;25.20;82.30;;;;;;4992685;28;20038;-72
2021/07/25 11:45:50;;;;;;;4.72;4.15;;;25.30;81.90;;;;;;4994806;28;20433;-73
2021/07/25 11:48:23;;;;;;;4.97;4.13;;;25.30;81.60;;;;;;4997718;28;20450;-67
2021/07/25 11:50:48;;;;;;;6.45;4.35;;;25.30;80.90;;;;;;4986668;28;20023;-68
2021/07/25 11:53:15;;;;;;;4.70;3.90;;;25.20;80.90;;;;;;4988009;28;20113;-68
2021/07/25 11:55:40;;;;;;;6.15;4.40;;;25.20;81.00;;;;;;4985563;28;20053;-68
2021/07/25 11:58:09;;;;;;;4.97;3.60;;;25.10;79.80;;;;;;4991223;28;20022;-68
2021/07/25 12:00:35;;;;;;;5.90;3.30;;;24.90;79.00;;;;;;4989046;28;20029;-68
2021/07/25 12:03:00;;;;;;;4.57;3.83;;;24.70;79.30;;;;;;4989302;28;20429;-68
2021/07/25 12:05:27;;;;;;;5.65;3.53;;;24.60;79.80;;;;;;4989038;28;20525;-68
2021/07/25 12:07:53;;;;;;;5.85;3.97;;;24.50;80.00;;;;;;4989971;28;20026;-68
2021/07/25 12:10:29;;;;;;;4.63;3.28;;;24.40;79.70;;;;;;4989782;28;20437;-67
2021/07/25 12:13:02;;;;;;;4.10;3.33;;;24.30;78.60;;;;;;4983840;28;20124;-68
2021/07/25 12:15:30;;;;;;;5.45;3.40;;;24.20;78.80;;;;;;4990948;28;20402;-69
2021/07/25 12:17:55;;;;;;;4.78;3.30;;;24.20;78.90;;;;;;4990009;28;20023;-68
2021/07/25 12:20:33;;;;;;;5.82;3.55;;;24.00;78.80;;;;;;4990189;28;20069;-68
2021/07/25 12:23:07;;;;;;;4.72;3.65;;;23.90;79.00;;;;;;4988991;28;20035;-68
2021/07/25 12:25:47;;;;;;;4.22;3.40;;;23.90;79.10;;;;;;4988064;28;20033;-68
2021/07/25 12:28:15;;;;;;;3.85;2.95;;;23.80;79.10;;;;;;4986768;28;20383;-69
2021/07/25 12:30:54;;;;;;;4.30;3.53;;;23.70;79.20;;;;;;4991851;28;20081;-68
2021/07/25 12:33:32;;;;;;;4.20;3.40;;;23.60;79.20;;;;;;4973346;28;20552;-68
2021/07/25 12:36:16;;;;;;;5.15;3.10;;;23.50;79.40;;;;;;4989988;28;20023;-68
2021/07/25 12:38:41;;;;;;;4.13;3.35;;;23.50;79.60;;;;;;4986675;28;20023;-68
2021/07/25 12:41:07;;;;;;;7.60;3.58;;;23.50;79.50;;;;;;4990062;28;20042;-68
2021/07/25 12:43:33;;;;;;;5.72;3.60;;;23.40;79.40;;;;;;4989275;28;20038;-68
2021/07/25 12:46:00;;;;;;;4.20;3.60;;;23.40;79.50;;;;;;4988693;28;20560;-68